KEYW

Key West International Airport

Key West, Florida, USA
METAR KEYW 150053Z AUTO 12009KT 10SM FEW027 31/23 A3004 RMK AO2 SLP173 T03060233
Observed Flight Rules
Aug-15 @ 00:53 UTC (11 minutes ago) Visual Flight Rules
Wind Visibility Clouds
120° at 9 knots 10 miles
  • Few at 2,700' AGL
Temperatures Readings
Current 31°C / 88°F
Dewpoint 23°C / 73°F
Humidity 62%
Altimeter 30.04" Hg
Pressure 1017.3 hPa
Elevation 5
METAR KEYW 150053Z AUTO 12009KT 10SM FEW027 31/23 A3004 RMK AO2 SLP173 T03060233
Observed Flight Rules
Aug-15 @ 00:53 UTC
(11 minutes ago)
VFR
Wind Visibility
120° at 9 knots 10 miles
Clouds
  • Few at 2,700' AGL
Temperature Dewpoint
31°C / 88°F 23°C / 73°F
Humidity Altimeter Pressure
62% 30.04" Hg 1017.3 hPa